createdAt,value
2023-12-05T00:00:46.115Z,97883.84
2023-12-05T00:03:14.095Z,97872.13
2023-12-05T00:05:42.588Z,97880.13
2023-12-05T00:08:10.444Z,97866.97
2023-12-05T00:10:38.221Z,97878.50
2023-12-05T00:13:08.489Z,97866.38
2023-12-05T00:15:36.353Z,97866.75
2023-12-05T00:18:04.392Z,97875.72
2023-12-05T00:20:32.189Z,97866.53
2023-12-05T00:22:59.981Z,97866.78
2023-12-05T00:25:27.761Z,97862.13
2023-12-05T00:27:55.625Z,97866.94
2023-12-05T00:30:24.880Z,97848.88
2023-12-05T00:32:52.728Z,97855.47
2023-12-05T00:35:21.098Z,97861.84
2023-12-05T00:37:49.036Z,97847.59
2023-12-05T00:40:16.823Z,97865.03
2023-12-05T00:42:44.611Z,97868.66
2023-12-05T00:45:15.301Z,97865.72
2023-12-05T00:47:43.144Z,97870.78
2023-12-05T00:50:10.950Z,97874.91
2023-12-05T00:52:38.811Z,97881.16
2023-12-05T00:55:06.675Z,97879.00
2023-12-05T00:57:34.953Z,97872.09
2023-12-05T01:00:02.749Z,97871.56
2023-12-05T01:02:31.340Z,97878.19
2023-12-05T01:04:59.317Z,97878.13
2023-12-05T01:07:27.663Z,97882.22
2023-12-05T01:09:55.548Z,97893.56
2023-12-05T01:12:23.364Z,97888.63
2023-12-05T01:15:00.670Z,97891.28
2023-12-05T01:17:28.549Z,97880.50
2023-12-05T01:19:56.783Z,97873.81
2023-12-05T01:22:24.621Z,97885.69
2023-12-05T01:24:55.957Z,97869.44
2023-12-05T01:27:23.859Z,97867.47
2023-12-05T01:29:51.657Z,97864.78
2023-12-05T01:32:19.452Z,97868.38
2023-12-05T01:34:47.271Z,97861.19
2023-12-05T01:37:15.027Z,97861.31
2023-12-05T01:39:42.843Z,97846.66
2023-12-05T01:42:10.587Z,97843.75
2023-12-05T01:44:38.512Z,97828.41
2023-12-05T01:47:06.800Z,97823.50
2023-12-05T01:49:37.064Z,97822.28
2023-12-05T01:52:05.601Z,97825.75
2023-12-05T01:54:33.609Z,97812.72
2023-12-05T01:57:01.560Z,97804.97
2023-12-05T01:59:29.394Z,97804.16
2023-12-05T02:01:57.379Z,97794.88
2023-12-05T02:04:25.473Z,97797.25
2023-12-05T02:06:53.411Z,97790.75
2023-12-05T02:09:21.357Z,97791.69
2023-12-05T02:11:49.142Z,97784.75
2023-12-05T02:14:16.891Z,97781.41
2023-12-05T02:17:05.717Z,97785.41
2023-12-05T02:19:43.516Z,97770.78
2023-12-05T02:22:28.669Z,97770.91
2023-12-05T02:25:02.670Z,97782.88
2023-12-05T02:27:35.815Z,97782.34
2023-12-05T02:30:04.105Z,97779.31
2023-12-05T02:32:31.856Z,97777.28
2023-12-05T02:35:00.283Z,97786.06
2023-12-05T02:37:49.829Z,97780.19
2023-12-05T02:40:33.527Z,97774.84
2023-12-05T02:43:04.184Z,97779.06
2023-12-05T02:45:32.325Z,97786.81
2023-12-05T02:48:00.379Z,97775.81
2023-12-05T02:50:28.390Z,97778.09
2023-12-05T02:52:56.203Z,97777.91
2023-12-05T02:55:23.960Z,97771.72
2023-12-05T02:57:52.056Z,97774.97
2023-12-05T03:00:20.840Z,97757.06
2023-12-05T03:02:48.705Z,97765.84
2023-12-05T03:05:18.143Z,97763.16
2023-12-05T03:07:46.106Z,97760.63
2023-12-05T03:10:13.905Z,97764.38
2023-12-05T03:12:41.753Z,97759.44
2023-12-05T03:15:10.017Z,97765.03
2023-12-05T03:17:38.058Z,97762.00
2023-12-05T03:20:06.854Z,97746.56
2023-12-05T03:22:34.695Z,97751.63
2023-12-05T03:25:02.459Z,97749.34
2023-12-05T03:27:30.293Z,97732.53
2023-12-05T03:29:58.059Z,97730.72
2023-12-05T03:32:25.871Z,97736.41
2023-12-05T03:34:53.672Z,97732.31
2023-12-05T03:37:21.470Z,97714.72
2023-12-05T03:39:49.248Z,97718.19
2023-12-05T03:42:17.100Z,97726.97
2023-12-05T03:44:44.824Z,97717.66
2023-12-05T03:47:12.588Z,97704.03
2023-12-05T03:49:40.338Z,97702.28
2023-12-05T03:52:08.166Z,97713.41
2023-12-05T03:54:36.012Z,97715.84
2023-12-05T03:57:03.979Z,97718.53
2023-12-05T03:59:31.727Z,97707.47
2023-12-05T04:01:59.521Z,97716.94
2023-12-05T04:04:27.442Z,97709.38
2023-12-05T04:06:55.317Z,97719.06
2023-12-05T04:09:23.568Z,97728.00
2023-12-05T04:11:51.338Z,97731.47
2023-12-05T04:14:19.075Z,97743.59
2023-12-05T04:16:46.854Z,97744.13
2023-12-05T04:19:14.764Z,97752.41
2023-12-05T04:21:42.607Z,97742.41
2023-12-05T04:24:10.446Z,97740.84
2023-12-05T04:26:38.237Z,97753.06
2023-12-05T04:29:06.032Z,97747.34
2023-12-05T04:31:33.733Z,97751.59
2023-12-05T04:34:02.070Z,97747.84
2023-12-05T04:36:29.941Z,97747.34
2023-12-05T04:38:57.764Z,97743.59
2023-12-05T04:41:25.490Z,97735.47
2023-12-05T04:43:53.593Z,97738.13
2023-12-05T04:46:21.364Z,97720.22
2023-12-05T04:48:49.264Z,97711.00
2023-12-05T04:51:20.957Z,97728.53
2023-12-05T04:53:48.733Z,97726.69
2023-12-05T04:56:16.528Z,97718.47
2023-12-05T04:58:44.319Z,97709.25
2023-12-05T05:01:12.054Z,97727.72
2023-12-05T05:03:39.970Z,97727.38
2023-12-05T05:06:08.051Z,97738.09
2023-12-05T05:08:35.933Z,97730.59
2023-12-05T05:11:03.936Z,97709.97
2023-12-05T05:13:33.656Z,97715.97
2023-12-05T05:16:01.545Z,97717.22
2023-12-05T05:18:29.931Z,97725.75
2023-12-05T05:20:57.712Z,97723.63
2023-12-05T05:23:25.588Z,97728.53
2023-12-05T05:25:53.415Z,97721.00
2023-12-05T05:28:21.230Z,97739.22
2023-12-05T05:30:49.684Z,97741.88
2023-12-05T05:33:17.597Z,97748.25
2023-12-05T05:35:45.485Z,97734.81
2023-12-05T05:38:13.195Z,97732.53
2023-12-05T05:40:44.205Z,97734.81
2023-12-05T05:43:12.018Z,97733.84
2023-12-05T05:45:39.837Z,97721.09
2023-12-05T05:48:07.694Z,97734.91
2023-12-05T05:50:37.303Z,97734.28
2023-12-05T05:53:05.045Z,97730.09
2023-12-05T05:55:33.554Z,97724.13
2023-12-05T05:58:01.321Z,97719.88
2023-12-05T06:00:29.167Z,97725.38
2023-12-05T06:02:56.935Z,97714.56
2023-12-05T06:05:26.069Z,97691.56
2023-12-05T06:07:53.913Z,97708.16
2023-12-05T06:10:21.888Z,97702.13
2023-12-05T06:12:49.598Z,97688.50
2023-12-05T06:15:17.535Z,97689.31
2023-12-05T06:17:45.522Z,97685.06
2023-12-05T06:20:13.333Z,97674.25
2023-12-05T06:22:41.068Z,97668.94
2023-12-05T06:25:08.967Z,97660.50
2023-12-05T06:27:36.856Z,97653.84
2023-12-05T06:30:13.178Z,97642.47
2023-12-05T06:32:48.668Z,97642.19
2023-12-05T06:35:16.518Z,97640.03
2023-12-05T06:37:44.324Z,97629.88
2023-12-05T06:40:12.465Z,97634.03
2023-12-05T06:42:41.885Z,97621.69
2023-12-05T06:45:10.578Z,97608.44
2023-12-05T06:47:39.967Z,97607.84
2023-12-05T06:50:12.686Z,97600.72
2023-12-05T06:52:41.535Z,97614.06
2023-12-05T06:55:10.048Z,97595.78
2023-12-05T06:57:38.037Z,97613.06
2023-12-05T07:00:06.767Z,97604.69
2023-12-05T07:02:34.627Z,97619.72
2023-12-05T07:05:05.798Z,97604.94
2023-12-05T07:07:34.031Z,97619.06
2023-12-05T07:10:02.197Z,97624.63
2023-12-05T07:12:30.094Z,97637.31
2023-12-05T07:14:57.951Z,97627.00
2023-12-05T07:17:25.750Z,97644.13
2023-12-05T07:19:53.517Z,97625.53
2023-12-05T07:22:21.442Z,97621.97
2023-12-05T07:24:49.151Z,97634.69
2023-12-05T07:27:16.980Z,97620.72
2023-12-05T07:29:44.766Z,97610.53
2023-12-05T07:32:12.716Z,97608.94
2023-12-05T07:34:42.623Z,97613.06
2023-12-05T07:37:10.488Z,97592.94
2023-12-05T07:39:38.349Z,97602.97
2023-12-05T07:42:08.827Z,97610.34
2023-12-05T07:44:37.024Z,97612.69
2023-12-05T07:47:07.102Z,97616.16
2023-12-05T07:49:35.425Z,97594.88
2023-12-05T07:52:05.383Z,97601.53
2023-12-05T07:54:33.264Z,97600.00
2023-12-05T07:57:01.003Z,97585.22
2023-12-05T07:59:28.763Z,97590.38
2023-12-05T08:01:56.503Z,97584.78
2023-12-05T08:04:24.399Z,97588.66
2023-12-05T08:06:52.230Z,97600.97
2023-12-05T08:09:20.086Z,97614.84
2023-12-05T08:11:47.872Z,97598.50
2023-12-05T08:14:16.090Z,97597.19
2023-12-05T08:16:43.872Z,97601.06
2023-12-05T08:19:12.342Z,97616.72
2023-12-05T08:21:40.173Z,97615.81
2023-12-05T08:24:08.039Z,97618.72
2023-12-05T08:26:36.009Z,97633.28
2023-12-05T08:29:03.869Z,97645.19
2023-12-05T08:31:31.667Z,97623.34
2023-12-05T08:34:00.076Z,97628.56
2023-12-05T08:36:28.044Z,97616.13
2023-12-05T08:38:55.965Z,97617.13
2023-12-05T08:41:23.823Z,97609.56
2023-12-05T08:43:51.714Z,97610.19
2023-12-05T08:46:19.533Z,97606.75
2023-12-05T08:48:47.507Z,97593.06
2023-12-05T08:51:16.143Z,97605.09
2023-12-05T08:53:43.981Z,97603.16
2023-12-05T08:56:12.076Z,97616.41
2023-12-05T08:58:40.158Z,97611.31
2023-12-05T09:01:11.209Z,97602.97
2023-12-05T09:03:39.116Z,97595.78
2023-12-05T09:06:07.202Z,97590.59
2023-12-05T09:08:35.064Z,97589.63
2023-12-05T09:11:02.927Z,97587.91
2023-12-05T09:13:30.687Z,97587.94
2023-12-05T09:15:58.565Z,97575.56
2023-12-05T09:18:26.492Z,97575.03
2023-12-05T09:20:54.296Z,97571.25
2023-12-05T09:23:22.590Z,97580.59
2023-12-05T09:25:50.413Z,97577.59
2023-12-05T09:28:18.208Z,97579.19
2023-12-05T09:30:46.240Z,97551.28
2023-12-05T09:33:14.089Z,97571.84
2023-12-05T09:35:41.853Z,97563.28
2023-12-05T09:38:09.554Z,97563.03
2023-12-05T09:40:37.306Z,97560.03
2023-12-05T09:43:05.830Z,97548.09
2023-12-05T09:45:41.150Z,97538.72
2023-12-05T09:48:11.136Z,97541.75
2023-12-05T09:50:39.174Z,97525.06
2023-12-05T09:53:10.812Z,97518.50
2023-12-05T09:55:39.460Z,97517.56
2023-12-05T09:58:07.527Z,97517.38
2023-12-05T10:00:35.392Z,97515.34
2023-12-05T10:03:03.958Z,97510.41
2023-12-05T10:05:31.901Z,97521.03
2023-12-05T10:08:01.134Z,97509.41
2023-12-05T10:10:28.979Z,97501.97
2023-12-05T10:12:57.000Z,97496.19
2023-12-05T10:15:24.857Z,97503.81
2023-12-05T10:17:52.849Z,97506.75
2023-12-05T10:20:20.878Z,97502.91
2023-12-05T10:22:48.973Z,97500.06
2023-12-05T10:25:17.451Z,97489.84
2023-12-05T10:27:45.375Z,97483.97
2023-12-05T10:30:15.643Z,97482.34
2023-12-05T10:32:46.033Z,97495.06
2023-12-05T10:35:13.858Z,97496.50
2023-12-05T10:37:42.692Z,97508.25
2023-12-05T10:40:11.086Z,97501.94
2023-12-05T10:42:38.878Z,97504.59
2023-12-05T10:45:07.619Z,97504.09
2023-12-05T10:47:35.461Z,97492.72
2023-12-05T10:50:03.782Z,97481.94
2023-12-05T10:52:32.838Z,97504.00
2023-12-05T10:55:00.886Z,97496.94
2023-12-05T10:57:32.391Z,97492.28
2023-12-05T11:00:00.689Z,97495.94
2023-12-05T11:02:28.985Z,97489.41
2023-12-05T11:04:56.903Z,97493.31
2023-12-05T11:07:24.672Z,97493.41
2023-12-05T11:09:52.433Z,97486.38
2023-12-05T11:12:20.434Z,97472.63
2023-12-05T11:14:49.238Z,97482.38
2023-12-05T11:17:20.492Z,97485.25
2023-12-05T11:20:23.640Z,97472.81
2023-12-05T11:23:29.116Z,97474.75
2023-12-05T11:26:08.861Z,97467.31
2023-12-05T11:28:42.459Z,97468.16
2023-12-05T11:31:22.644Z,97461.06
2023-12-05T11:33:53.944Z,97460.56
2023-12-05T11:36:30.139Z,97462.59
2023-12-05T11:38:58.204Z,97464.28
2023-12-05T11:41:26.021Z,97458.84
2023-12-05T11:44:15.749Z,97452.72
2023-12-05T11:46:44.000Z,97452.53
2023-12-05T11:49:11.914Z,97446.91
2023-12-05T11:51:39.819Z,97448.13
2023-12-05T11:54:07.669Z,97453.38
2023-12-05T11:56:35.687Z,97458.13
2023-12-05T11:59:15.546Z,97464.19
2023-12-05T12:01:44.659Z,97453.72
2023-12-05T12:04:22.611Z,97456.00
2023-12-05T12:06:51.017Z,97456.91
2023-12-05T12:09:18.954Z,97454.75
2023-12-05T12:11:46.921Z,97458.47
2023-12-05T12:14:20.639Z,97457.16
2023-12-05T12:16:49.364Z,97469.50
2023-12-05T12:19:17.740Z,97471.66
2023-12-05T12:21:46.107Z,97455.22
2023-12-05T12:24:23.529Z,97457.53
2023-12-05T12:26:55.050Z,97461.25
2023-12-05T12:29:23.130Z,97471.53
2023-12-05T12:31:53.494Z,97467.59
2023-12-05T12:34:22.476Z,97451.22
2023-12-05T12:36:50.379Z,97463.13
2023-12-05T12:39:18.284Z,97468.47
2023-12-05T12:41:49.689Z,97462.94
2023-12-05T12:44:17.725Z,97453.03
2023-12-05T12:46:45.796Z,97449.44
2023-12-05T12:49:14.006Z,97440.78
2023-12-05T12:51:44.644Z,97451.09
2023-12-05T12:54:12.445Z,97444.91
2023-12-05T12:56:40.726Z,97440.31
2023-12-05T12:59:11.380Z,97439.53
2023-12-05T13:01:41.233Z,97444.66
2023-12-05T13:04:12.572Z,97440.88
2023-12-05T13:06:49.697Z,97452.50
2023-12-05T13:09:18.805Z,97430.47
2023-12-05T13:11:46.794Z,97423.00
2023-12-05T13:14:15.304Z,97418.94
2023-12-05T13:16:43.394Z,97415.78
2023-12-05T13:19:25.603Z,97418.16
2023-12-05T13:22:21.035Z,97413.41
2023-12-05T13:24:48.846Z,97428.91
2023-12-05T13:27:16.688Z,97432.41
2023-12-05T13:29:51.736Z,97425.38
2023-12-05T13:32:19.543Z,97430.47
2023-12-05T13:34:47.369Z,97433.72
2023-12-05T13:37:15.200Z,97435.91
2023-12-05T13:39:42.972Z,97431.03
2023-12-05T13:42:10.756Z,97444.13
2023-12-05T13:44:43.841Z,97426.88
2023-12-05T13:47:11.646Z,97445.09
2023-12-05T13:49:39.536Z,97440.69
2023-12-05T13:52:07.515Z,97444.47
2023-12-05T13:54:35.382Z,97446.75
2023-12-05T13:57:03.120Z,97443.56
2023-12-05T13:59:32.933Z,97444.53
2023-12-05T14:02:00.692Z,97446.53
2023-12-05T14:04:28.649Z,97442.84
2023-12-05T14:06:56.618Z,97441.16
2023-12-05T14:09:25.483Z,97440.31
2023-12-05T14:11:54.727Z,97439.97
2023-12-05T14:14:22.502Z,97443.50
2023-12-05T14:16:50.489Z,97442.25
2023-12-05T14:19:18.744Z,97453.22
2023-12-05T14:21:48.107Z,97446.06
2023-12-05T14:24:16.396Z,97443.31
2023-12-05T14:26:44.165Z,97440.97
2023-12-05T14:29:11.955Z,97442.47
2023-12-05T14:31:39.984Z,97435.38
2023-12-05T14:34:09.513Z,97438.19
2023-12-05T14:36:37.480Z,97437.38
2023-12-05T14:39:10.770Z,97429.72
2023-12-05T14:41:39.239Z,97432.09
2023-12-05T14:44:07.013Z,97420.66
2023-12-05T14:46:34.778Z,97426.22
2023-12-05T14:49:02.699Z,97432.47
2023-12-05T14:51:30.543Z,97435.75
2023-12-05T14:53:58.330Z,97422.84
2023-12-05T14:56:26.061Z,97425.03
2023-12-05T14:58:53.890Z,97432.75
2023-12-05T15:01:21.685Z,97430.78
2023-12-05T15:03:51.336Z,97421.38
2023-12-05T15:06:19.449Z,97426.69
2023-12-05T15:08:48.365Z,97430.91
2023-12-05T15:11:16.389Z,97422.72
2023-12-05T15:13:44.225Z,97421.50
2023-12-05T15:16:11.980Z,97420.03
2023-12-05T15:18:39.858Z,97419.09
2023-12-05T15:21:09.163Z,97416.81
2023-12-05T15:23:36.988Z,97420.25
2023-12-05T15:26:05.033Z,97424.00
2023-12-05T15:28:34.746Z,97407.09
2023-12-05T15:31:02.687Z,97417.50
2023-12-05T15:33:30.724Z,97415.81
2023-12-05T15:35:58.664Z,97415.22
2023-12-05T15:38:28.812Z,97408.84
2023-12-05T15:40:56.651Z,97405.81
2023-12-05T15:43:24.441Z,97404.53
2023-12-05T15:45:52.565Z,97397.69
2023-12-05T15:48:43.126Z,97390.91
2023-12-05T15:51:08.141Z,97395.66
2023-12-05T15:53:36.806Z,97381.22
2023-12-05T15:56:04.974Z,97384.59
2023-12-05T15:58:32.953Z,97386.72
2023-12-05T16:01:00.868Z,97385.31
2023-12-05T16:03:28.943Z,97391.72
2023-12-05T16:05:56.712Z,97399.75
2023-12-05T16:08:24.919Z,97390.22
2023-12-05T16:10:53.743Z,97380.63
2023-12-05T16:13:22.182Z,97390.28
2023-12-05T16:15:50.296Z,97383.13
2023-12-05T16:18:18.162Z,97375.31
2023-12-05T16:20:46.088Z,97382.75
2023-12-05T16:23:13.909Z,97378.94
2023-12-05T16:25:42.200Z,97375.69
2023-12-05T16:28:09.985Z,97374.63
2023-12-05T16:30:38.104Z,97370.72
2023-12-05T16:33:05.974Z,97363.25
2023-12-05T16:35:33.851Z,97375.88
2023-12-05T16:38:01.617Z,97365.44
2023-12-05T16:40:29.500Z,97362.38
2023-12-05T16:42:57.282Z,97363.94
2023-12-05T16:45:27.061Z,97365.72
2023-12-05T16:48:00.005Z,97362.59
2023-12-05T16:50:28.081Z,97355.53
2023-12-05T16:52:55.869Z,97359.69
2023-12-05T16:55:23.641Z,97357.56
2023-12-05T16:57:51.421Z,97350.88
2023-12-05T17:00:19.681Z,97347.47
2023-12-05T17:02:47.536Z,97350.31
2023-12-05T17:05:15.502Z,97351.50
2023-12-05T17:07:44.078Z,97358.28
2023-12-05T17:10:11.916Z,97350.56
2023-12-05T17:12:39.665Z,97360.34
2023-12-05T17:15:07.790Z,97357.50
2023-12-05T17:17:35.637Z,97351.78
2023-12-05T17:20:04.599Z,97357.97
2023-12-05T17:22:32.871Z,97348.28
2023-12-05T17:25:01.289Z,97351.03
2023-12-05T17:27:29.087Z,97347.22
2023-12-05T17:29:57.069Z,97339.66
2023-12-05T17:32:28.314Z,97347.41
2023-12-05T17:34:57.197Z,97345.41
2023-12-05T17:37:27.494Z,97342.56
2023-12-05T17:39:55.370Z,97341.47
2023-12-05T17:42:23.177Z,97331.78
2023-12-05T17:44:54.166Z,97349.22
2023-12-05T17:47:22.613Z,97343.16
2023-12-05T17:49:53.095Z,97345.44
2023-12-05T17:52:21.217Z,97339.38
2023-12-05T17:54:49.083Z,97334.56
2023-12-05T17:57:17.189Z,97339.31
2023-12-05T17:59:46.449Z,97328.22
2023-12-05T18:02:15.363Z,97320.72
2023-12-05T18:04:43.372Z,97319.44
2023-12-05T18:07:50.937Z,97320.31
2023-12-05T18:09:59.336Z,97321.28
2023-12-05T18:12:27.342Z,97315.72
2023-12-05T18:14:55.202Z,97313.88
2023-12-05T18:17:23.009Z,97311.34
2023-12-05T18:19:51.232Z,97314.47
2023-12-05T18:22:19.781Z,97316.03
2023-12-05T18:24:47.803Z,97314.72
2023-12-05T18:27:15.692Z,97303.88
2023-12-05T18:29:45.629Z,97310.84
2023-12-05T18:32:14.576Z,97312.16
2023-12-05T18:34:42.612Z,97312.28
2023-12-05T18:37:10.414Z,97313.69
2023-12-05T18:39:38.206Z,97314.28
2023-12-05T18:42:06.231Z,97314.81
2023-12-05T18:44:33.970Z,97321.97
2023-12-05T18:47:01.716Z,97313.69
2023-12-05T18:49:29.717Z,97317.38
2023-12-05T18:51:57.515Z,97319.78
2023-12-05T18:54:25.586Z,97320.69
2023-12-05T18:56:53.370Z,97317.06
2023-12-05T18:59:21.343Z,97310.94
2023-12-05T19:01:50.208Z,97321.41
2023-12-05T19:04:18.033Z,97323.00
2023-12-05T19:06:45.957Z,97327.75
2023-12-05T19:09:13.916Z,97324.84
2023-12-05T19:11:42.601Z,97321.09
2023-12-05T19:14:10.695Z,97323.88
2023-12-05T19:16:38.504Z,97318.84
2023-12-05T19:19:09.151Z,97322.13
2023-12-05T19:21:37.195Z,97319.84
2023-12-05T19:24:04.983Z,97313.50
2023-12-05T19:26:32.864Z,97302.88
2023-12-05T19:29:01.328Z,97309.19
2023-12-05T19:31:31.998Z,97307.75
2023-12-05T19:33:59.986Z,97308.22
2023-12-05T19:36:27.909Z,97306.53
2023-12-05T19:38:55.778Z,97309.69
2023-12-05T19:41:23.634Z,97300.19
2023-12-05T19:43:52.695Z,97298.63
2023-12-05T19:46:20.585Z,97304.25
2023-12-05T19:48:50.123Z,97298.44
2023-12-05T19:51:18.797Z,97304.97
2023-12-05T19:53:46.648Z,97315.22
2023-12-05T19:56:15.730Z,97311.09
2023-12-05T19:58:43.674Z,97317.06
2023-12-05T20:01:11.745Z,97318.78
2023-12-05T20:03:39.672Z,97318.09
2023-12-05T20:06:07.884Z,97312.38
2023-12-05T20:08:35.618Z,97307.22
2023-12-05T20:11:03.590Z,97303.06
2023-12-05T20:13:31.664Z,97303.38
2023-12-05T20:15:59.468Z,97294.22
2023-12-05T20:18:27.315Z,97286.00
2023-12-05T20:20:55.206Z,97282.63
2023-12-05T20:23:23.971Z,97286.69
2023-12-05T20:25:51.879Z,97290.78
2023-12-05T20:28:20.378Z,97288.25
2023-12-05T20:30:50.175Z,97294.13
2023-12-05T20:33:18.131Z,97285.25
2023-12-05T20:35:45.922Z,97282.00
2023-12-05T20:38:13.736Z,97285.06
2023-12-05T20:40:41.590Z,97277.38
2023-12-05T20:43:09.459Z,97291.25
2023-12-05T20:45:37.333Z,97291.50
2023-12-05T20:48:05.368Z,97290.72
2023-12-05T20:50:33.222Z,97293.91
2023-12-05T20:53:01.125Z,97288.03
2023-12-05T20:55:28.893Z,97284.81
2023-12-05T20:57:56.688Z,97286.63
2023-12-05T21:00:24.460Z,97281.00
2023-12-05T21:02:52.243Z,97280.50
2023-12-05T21:05:20.142Z,97278.25
2023-12-05T21:07:48.443Z,97274.91
2023-12-05T21:10:16.424Z,97272.53
2023-12-05T21:12:44.209Z,97266.66
2023-12-05T21:15:12.038Z,97268.44
2023-12-05T21:17:39.980Z,97270.66
2023-12-05T21:20:11.151Z,97271.16
2023-12-05T21:22:39.051Z,97261.41
2023-12-05T21:25:07.406Z,97255.66
2023-12-05T21:27:35.276Z,97260.38
2023-12-05T21:30:03.228Z,97261.63
2023-12-05T21:32:30.971Z,97262.28
2023-12-05T21:34:58.823Z,97273.09
2023-12-05T21:37:26.678Z,97282.78
2023-12-05T21:39:54.458Z,97277.22
2023-12-05T21:42:22.588Z,97280.72
2023-12-05T21:44:50.385Z,97278.84
2023-12-05T21:47:19.314Z,97280.84
2023-12-05T21:49:47.204Z,97281.03
2023-12-05T21:52:15.199Z,97270.53
2023-12-05T21:54:43.086Z,97270.03
2023-12-05T21:57:10.916Z,97264.34
2023-12-05T21:59:38.640Z,97256.78
2023-12-05T22:02:06.641Z,97252.84
2023-12-05T22:04:34.655Z,97255.09
2023-12-05T22:07:02.652Z,97247.66
2023-12-05T22:09:30.459Z,97245.72
2023-12-05T22:11:58.351Z,97239.81
2023-12-05T22:14:26.062Z,97239.25
2023-12-05T22:16:53.877Z,97236.72
2023-12-05T22:19:21.748Z,97233.00
2023-12-05T22:21:49.657Z,97217.06
2023-12-05T22:24:25.506Z,97221.59
2023-12-05T22:27:00.381Z,97222.63
2023-12-05T22:29:28.209Z,97224.78
2023-12-05T22:31:57.090Z,97216.44
2023-12-05T22:34:24.974Z,97210.69
2023-12-05T22:36:53.418Z,97210.13
2023-12-05T22:39:21.184Z,97202.56
2023-12-05T22:41:49.008Z,97197.41
2023-12-05T22:44:16.738Z,97191.66
2023-12-05T22:46:44.587Z,97185.91
2023-12-05T22:49:14.465Z,97175.19
2023-12-05T22:51:43.371Z,97174.47
2023-12-05T22:54:11.204Z,97173.19
2023-12-05T22:56:39.111Z,97171.91
2023-12-05T22:59:06.840Z,97165.78
2023-12-05T23:01:34.751Z,97168.44
2023-12-05T23:04:02.540Z,97174.47
2023-12-05T23:06:30.335Z,97168.09
2023-12-05T23:08:58.266Z,97172.31
2023-12-05T23:11:26.271Z,97174.84
2023-12-05T23:13:53.987Z,97168.78
2023-12-05T23:16:21.808Z,97166.19
2023-12-05T23:18:49.655Z,97170.94
2023-12-05T23:21:17.514Z,97167.56
2023-12-05T23:23:45.295Z,97172.34
2023-12-05T23:26:13.228Z,97163.69
2023-12-05T23:28:41.076Z,97170.13
2023-12-05T23:31:08.983Z,97167.78
2023-12-05T23:33:36.867Z,97150.88
2023-12-05T23:36:04.920Z,97154.69
2023-12-05T23:38:33.081Z,97156.19
2023-12-05T23:41:12.374Z,97147.06
2023-12-05T23:43:49.497Z,97152.00
2023-12-05T23:46:17.345Z,97142.41
2023-12-05T23:48:46.124Z,97144.94
2023-12-05T23:51:14.651Z,97144.38
2023-12-05T23:53:42.392Z,97135.72
2023-12-05T23:56:12.103Z,97130.66
2023-12-05T23:58:41.187Z,97130.63
